首页
METAR-TAF:

METAR-TAF

机场 :

萨尔瓦多, 萨尔瓦多

萨尔瓦多奥斯卡·阿努尔福·罗梅罗-伊-加尔达梅斯主教国际机场

纬度: 13-26N, 经度: 089-03W, 海拔: 25米

当前天气观测

该预报发布于21分钟前的14:50 UTC
风速10节,风向北转东北,在东转东北之间变化
温度 29°C
湿度 45%
气压 1013 hPa
能见度10公里或以上
1500米以下无云,无积雨云

METAR: MSLP 201450Z 03010KT 360V060 CAVOK 29/16 Q1012 A2991 NOSIG

时间: 09:11 (15:11 UTC)

预报

该预报发布于5小时和46分钟前的09:25 UTC
预报有效从20日的 12点(UTC)到 21日的 12点(UTC)
风速8节,风向北转东北,有时为18节阵风
能见度10公里或以上
1500米以下无云,无积雨云
短暂存在
从 20日的 19点(UTC)到 21日的 01点(UTC)
风速8节,风向南转西南
能见度10公里或以上
少量云层高于6000英尺
从 21日的 0100点(UTC)
风速7节,风向北转东北
能见度10公里或以上
1500米以下无云,无积雨云

TAF: MSLP 200925Z 2012/2112 03008G18KT CAVOK TX34/2018Z TN23/2112Z TEMPO 2019/2101 20008KT 9999 FEW060 FM210100 02007KT CAVOK

超过4000个机场的气象观测和天气预报(METAR&TAF报告)。

可查询的气象台以黄色和红色小点在地图上表示。

将鼠标移到小点上方,可查看气象台名称。

然后点击查看天气观测和预报。

如需切换地图:点击带黑十字的绿色按钮放大地图;点击带横线的绿色按钮缩小地图;或者点击绿色箭头查看邻近地区的地图。


METAR-TAF: